Map

Track Data

SID SEASON NUMBER BASIN SUBBASIN NAME ISO_TIME NATURE LAT LON WMO_WIND WMO_PRES WMO_AGENCY TRACK_TYPE DIST2LAND LANDFALL IFLAG USA_AGENCY USA_ATCF_ID USA_LAT USA_LON USA_RECORD USA_STATUS USA_WIND USA_PRES USA_SSHS USA_R34_NE USA_R34_SE USA_R34_SW USA_R34_NW USA_R50_NE USA_R50_SE USA_R50_SW USA_R50_NW USA_R64_NE USA_R64_SE USA_R64_SW USA_R64_NW USA_POCI USA_ROCI USA_RMW USA_EYE TOKYO_LAT TOKYO_LON TOKYO_GRADE TOKYO_WIND TOKYO_PRES TOKYO_R50_DIR TOKYO_R50_LONG TOKYO_R50_SHORT TOKYO_R30_DIR TOKYO_R30_LONG TOKYO_R30_SHORT TOKYO_LAND CMA_LAT CMA_LON CMA_CAT CMA_WIND CMA_PRES HKO_LAT HKO_LON HKO_CAT HKO_WIND HKO_PRES NEWDELHI_LAT NEWDELHI_LON NEWDELHI_GRADE NEWDELHI_WIND NEWDELHI_PRES NEWDELHI_CI NEWDELHI_DP NEWDELHI_POCI REUNION_LAT REUNION_LON REUNION_TYPE REUNION_WIND REUNION_PRES REUNION_TNUM REUNION_CI REUNION_RMW REUNION_R34_NE REUNION_R34_SE REUNION_R34_SW REUNION_R34_NW REUNION_R50_NE REUNION_R50_SE REUNION_R50_SW REUNION_R50_NW REUNION_R64_NE REUNION_R64_SE REUNION_R64_SW REUNION_R64_NW BOM_LAT BOM_LON BOM_TYPE BOM_WIND BOM_PRES BOM_TNUM BOM_CI BOM_RMW BOM_R34_NE BOM_R34_SE BOM_R34_SW BOM_R34_NW BOM_R50_NE BOM_R50_SE BOM_R50_SW BOM_R50_NW BOM_R64_NE BOM_R64_SE BOM_R64_SW BOM_R64_NW BOM_ROCI BOM_POCI BOM_EYE BOM_POS_METHOD BOM_PRES_METHOD NADI_LAT NADI_LON NADI_CAT NADI_WIND NADI_PRES WELLINGTON_LAT WELLINGTON_LON WELLINGTON_WIND WELLINGTON_PRES DS824_LAT DS824_LON DS824_STAGE DS824_WIND DS824_PRES TD9636_LAT TD9636_LON TD9636_STAGE TD9636_WIND TD9636_PRES TD9635_LAT TD9635_LON TD9635_WIND TD9635_PRES TD9635_ROCI NEUMANN_LAT NEUMANN_LON NEUMANN_CLASS NEUMANN_WIND NEUMANN_PRES MLC_LAT MLC_LON MLC_CLASS MLC_WIND MLC_PRES USA_GUST BOM_GUST BOM_GUST_PER REUNION_GUST REUNION_GUST_PER USA_SEAHGT USA_SEARAD_NE USA_SEARAD_SE USA_SEARAD_SW USA_SEARAD_NW STORM_SPEED STORM_DIR
1878101S10066 1878 5 SI MM NOT_NAMED 1878-04-10 18:00:00 NR -10.3000 66.4000 main 1439 1391 __________O___ -1 -10.3000 66.4000 7 9 202
1878101S10066 1878 5 SI MM NOT_NAMED 1878-04-10 21:00:00 NR -10.7079 66.2281 main 1391 1350 __________P___ -1 -10.7079 66.2281 7 9 202
1878101S10066 1878 5 SI MM NOT_NAMED 1878-04-11 00:00:00 NR -11.1426 66.0548 main 1350 1293 __________P___ -1 -11.1426 66.0548 7 10 200
1878101S10066 1878 5 SI MM NOT_NAMED 1878-04-11 03:00:00 NR -11.6309 65.8791 main 1293 1229 __________P___ -1 -11.6309 65.8791 7 11 198
1878101S10066 1878 5 SI MM NOT_NAMED 1878-04-11 06:00:00 NR -12.2000 65.7000 main 1229 1165 __________O___ -1 -12.2000 65.7000 7 13 196
1878101S10066 1878 5 SI MM NOT_NAMED 1878-04-11 09:00:00 NR -12.8670 65.5189 main 1157 1095 __________P___ -1 -12.8670 65.5189 7 15 194
1878101S10066 1878 5 SI MM NOT_NAMED 1878-04-11 12:00:00 NR -13.6103 65.3483 main 1087 1020 __________P___ -1 -13.6103 65.3483 7 16 191
1878101S10066 1878 5 SI MM NOT_NAMED 1878-04-11 15:00:00 NR -14.3983 65.2034 main 1020 956 __________P___ -1 -14.3983 65.2034 7 16 189
1878101S10066 1878 5 SI MM NOT_NAMED 1878-04-11 18:00:00 NR -15.2000 65.1000 main 956 903 __________O___ -1 -15.2000 65.1000 7 16 186
1878101S10066 1878 5 SI MM NOT_NAMED 1878-04-11 21:00:00 NR -15.9839 65.0325 main 897 858 __________P___ -1 -15.9839 65.0325 7 16 183
1878101S10066 1878 5 SI MM NOT_NAMED 1878-04-12 00:00:00 NR -16.7723 65.0102 main 853 819 __________P___ -1 -16.7723 65.0102 7 16 180
1878101S10066 1878 5 SI MM NOT_NAMED 1878-04-12 03:00:00 NR -17.5496 65.0328 main 819 798 __________P___ -1 -17.5496 65.0328 7 15 177
1878101S10066 1878 5 SI MM NOT_NAMED 1878-04-12 06:00:00 NR -18.3000 65.1000 main 798 785 __________O___ -1 -18.3000 65.1000 7 15 174
1878101S10066 1878 5 SI MM NOT_NAMED 1878-04-12 09:00:00 NR -19.0157 65.1866 main 788 780 __________P___ -1 -19.0157 65.1866 7 14 172
1878101S10066 1878 5 SI MM NOT_NAMED 1878-04-12 12:00:00 NR -19.7022 65.3178 main 786 785 __________P___ -1 -19.7022 65.3178 7 14 168
1878101S10066 1878 5 SI MM NOT_NAMED 1878-04-12 15:00:00 NR -20.3626 65.4901 main 802 802 __________P___ -1 -20.3626 65.4901 7 14 165
1878101S10066 1878 5 SI MM NOT_NAMED 1878-04-12 18:00:00 NR -21.0000 65.7000 main 825 825 __________O___ -1 -21.0000 65.7000 7 13 163
1878101S10066 1878 5 SI MM NOT_NAMED 1878-04-12 21:00:00 NR -21.5924 65.8849 main 853 853 __________P___ -1 -21.5924 65.8849 7 12 162
1878101S10066 1878 5 SI MM NOT_NAMED 1878-04-13 00:00:00 NR -22.1687 66.1121 main 885 885 __________P___ -1 -22.1687 66.1121 7 13 157
1878101S10066 1878 5 SI MM NOT_NAMED 1878-04-13 03:00:00 NR -22.7607 66.4080 main 931 931 __________P___ -1 -22.7607 66.4080 7 14 153
1878101S10066 1878 5 SI MM NOT_NAMED 1878-04-13 06:00:00 NR -23.4000 66.8000 main 990 990 __________O___ -1 -23.4000 66.8000 7 16 149
1878101S10066 1878 5 SI MM NOT_NAMED 1878-04-13 09:00:00 NR -24.1661 67.3216 main 1069 1069 __________P___ -1 -24.1661 67.3216 7 19 146
1878101S10066 1878 5 SI MM NOT_NAMED 1878-04-13 12:00:00 NR -24.9736 67.9412 main 1159 1159 __________P___ -1 -24.9736 67.9412 7 20 144
1878101S10066 1878 5 SI MM NOT_NAMED 1878-04-13 15:00:00 NR -25.7692 68.6157 main 1260 1260 __________P___ -1 -25.7692 68.6157 7 20 141
1878101S10066 1878 5 SI MM NOT_NAMED 1878-04-13 18:00:00 NR -26.5000 69.3000 main 1358 1358 __________O___ -1 -26.5000 69.3000 7 18 139
1878101S10066 1878 5 SI MM NOT_NAMED 1878-04-13 21:00:00 NR -27.1278 69.9563 main 1450 1450 __________P___ -1 -27.1278 69.9563 7 16 136
1878101S10066 1878 5 SI MM NOT_NAMED 1878-04-14 00:00:00 NR -27.6680 70.5848 main 1534 1534 __________P___ -1 -27.6680 70.5848 7 15 133
1878101S10066 1878 5 SI MM NOT_NAMED 1878-04-14 03:00:00 NR -28.1494 71.1957 main 1607 1607 __________P___ -1 -28.1494 71.1957 7 14 131
1878101S10066 1878 5 SI MM NOT_NAMED 1878-04-14 06:00:00 NR -28.6000 71.8000 main 1686 __________O___ -1 -28.6000 71.8000 7 14 130

About IBTrACS Database

This database is a web-friendly format of International Best Track Archive for Climate Stewardship (IBTrACS), a global best track data archive curated by NOAA dating back to 1842.

Updated: 2021-12-03